Terminal Aerodrome Forecast
Issued by NWS

Home | Current Version | Previous Version | Text Only | Print | Product List | Glossary On
Versions: 1 2 3 4 5 6 7 8 9 10 11 12 13
000
FTUS43 KGRR 231100
TAFMKG
TAF
KMKG 231128Z 2312/2412 13005KT 3SM BR SCT250
      TEMPO 2312/2314 2SM BR BKN009
     FM231500 16005KT P6SM BKN250
     FM231900 19009KT P6SM BKN200
     FM240300 20006KT P6SM -RA BKN050 OVC100=

USA.gov is the U.S. government's official web portal to all federal, state and local government web resources and services.